(°C)
-4°
-7°
-3°
(°C)
-8°
-11°
-7°
-4°
-0°
N
N
N
N
NNE
NNE
NNE
(km/h)
4-15
4-15
3-15
4-15
5-15
6-16
7-17
(mm)
0
0
0
0
0
0
0
(%)
0
0
0
0
0
0
0

Elevação do sol

/ -3°
sun-icon
UV 2
07:58
18:31
Crescente gibosa (132°)
17:51
02:01

METAR para 55.03°N 82.6°L (UNNT)

Hora Condições Temperatura/
Ponto de condensação
Vento Visibilidade Tempo Nuvens Pressão Mudança Bruto
VFR -7°C / -7°C 320º 4kt >10km - Clouds and Visibility OK 1032 No Significant change. Runway 07: Clear and dry, 51-100% contamination with <1mm, friction coefficient 0.70. Runway 16: Clear and dry, 51-100% contamination with <1mm, friction coefficient 0.70. UNNT 160030Z 32002MPS CAVOK M07/M07 Q1032 R07/090070 R16/090070 NOSIG RMK QFE764/1019
VFR -5°C / -6°C 300º 4kt >10km - Clouds and Visibility OK 1032 No Significant change. Runway 25: Clear and dry, 51-100% contamination with <1mm, friction coefficient 0.70. Runway 16: Clear and dry, 51-100% contamination with <1mm, friction coefficient 0.70. UNNT 160000Z 30002MPS CAVOK M05/M06 Q1032 R25/090070 R16/090070 NOSIG RMK QFE764/1019
VFR -5°C / -6°C 340º 2kt >10km - Clouds and Visibility OK 1033 No Significant change. Runway 25: Clear and dry, 51-100% contamination with <1mm, friction coefficient 0.70. Runway 16: Clear and dry, 51-100% contamination with <1mm, friction coefficient 0.70. UNNT 152330Z 34001MPS CAVOK M05/M06 Q1033 R25/090070 R16/090070 NOSIG RMK QFE764/1019
VFR -6°C / -7°C 310º 2kt >10km - Clouds and Visibility OK 1033 No Significant change. Runway 07: Clear and dry, 51-100% contamination with <1mm, friction coefficient 0.70. Runway 16: Clear and dry, 51-100% contamination with <1mm, friction coefficient 0.70. UNNT 152300Z 31001MPS CAVOK M06/M07 Q1033 R07/090070 R16/090070 NOSIG RMK QFE764/1019
VFR -6°C / -6°C 330º 4kt >10km - Clouds and Visibility OK 1033 No Significant change. Runway 07: Clear and dry, 51-100% contamination with <1mm, friction coefficient 0.70. Runway 16: Clear and dry, 51-100% contamination with <1mm, friction coefficient 0.70. UNNT 152230Z 33002MPS CAVOK M06/M06 Q1033 R07/090070 R16/090070 NOSIG RMK QFE765/1020
VFR -4°C / -4°C 320º 4kt >10km - Clouds and Visibility OK 1033 No Significant change. Runway 07: Clear and dry, 51-100% contamination with <1mm, friction coefficient 0.70. Runway 16: Clear and dry, 51-100% contamination with <1mm, friction coefficient 0.70. UNNT 152200Z 32002MPS CAVOK M04/M04 Q1033 R07/090070 R16/090070 NOSIG RMK QFE765/1020
VFR -5°C / -6°C 310º 2kt >10km - Clouds and Visibility OK 1033 No Significant change. Runway 07: Clear and dry, 51-100% contamination with <1mm, friction coefficient 0.70. Runway 16: Clear and dry, 51-100% contamination with <1mm, friction coefficient 0.70. UNNT 152130Z 31001MPS CAVOK M05/M06 Q1033 R07/090070 R16/090070 NOSIG RMK QFE765/1020
VFR -5°C / -6°C 340º 4kt >10km - Clouds and Visibility OK 1033 No Significant change. Runway 07: Clear and dry, 51-100% contamination with <1mm, friction coefficient 0.70. Runway 16: Clear and dry, 51-100% contamination with <1mm, friction coefficient 0.70. UNNT 152100Z 34002MPS CAVOK M05/M06 Q1033 R07/090070 R16/090070 NOSIG RMK QFE765/1020
VFR -4°C / -5°C 260º 2kt >10km - Clouds and Visibility OK 1034 No Significant change. Runway 07: Clear and dry, 51-100% contamination with <1mm, friction coefficient 0.70. Runway 16: Clear and dry, 51-100% contamination with <1mm, friction coefficient 0.70. UNNT 152030Z 26001MPS CAVOK M04/M05 Q1034 R07/090070 R16/090070 NOSIG RMK QFE765/1020
VFR -5°C / -5°C 330º 2kt >10km - Clouds and Visibility OK 1034 No Significant change. Runway 07: Clear and dry, 51-100% contamination with <1mm, friction coefficient 0.70. Runway 16: Clear and dry, 51-100% contamination with <1mm, friction coefficient 0.70. UNNT 152000Z 33001MPS CAVOK M05/M05 Q1034 R07/090070 R16/090070 NOSIG RMK QFE765/1020
VFR -4°C / -5°C 350º 4kt >10km - Clouds and Visibility OK 1034 No Significant change. Runway 07: Clear and dry, 51-100% contamination with <1mm, friction coefficient 0.70. Runway 16: Clear and dry, 51-100% contamination with <1mm, friction coefficient 0.70. UNNT 151930Z 35002MPS CAVOK M04/M05 Q1034 R07/090070 R16/090070 NOSIG RMK QFE765/1020
VFR -4°C / -6°C 350º 4kt >10km - Clouds and Visibility OK 1034 No Significant change. Runway 07: Clear and dry, 51-100% contamination with <1mm, friction coefficient 0.70. Runway 16: Clear and dry, 51-100% contamination with <1mm, friction coefficient 0.70. UNNT 151900Z 35002MPS CAVOK M04/M06 Q1034 R07/090070 R16/090070 NOSIG RMK QFE765/1020
VFR -3°C / -5°C variable 2kt >10km - Clouds and Visibility OK 1034 No Significant change. Runway 07: Clear and dry, 51-100% contamination with <1mm, friction coefficient 0.70. Runway 16: Clear and dry, 51-100% contamination with <1mm, friction coefficient 0.70. UNNT 151830Z VRB01MPS CAVOK M03/M05 Q1034 R07/090070 R16/090070 NOSIG RMK QFE765/1021
VFR -3°C / -5°C 310º 2kt >10km - Clouds and Visibility OK 1034 No Significant change. Runway 07: Clear and dry, 51-100% contamination with <1mm, friction coefficient 0.70. Runway 16: Clear and dry, 51-100% contamination with <1mm, friction coefficient 0.70. UNNT 151800Z 31001MPS CAVOK M03/M05 Q1034 R07/090070 R16/090070 NOSIG RMK QFE766/1021
VFR -2°C / -4°C 290º 2kt >10km - Clouds and Visibility OK 1035 No Significant change. Runway 07: Clear and dry, 51-100% contamination with <1mm, friction coefficient 0.70. Runway 16: Clear and dry, 51-100% contamination with <1mm, friction coefficient 0.70. UNNT 151730Z 29001MPS CAVOK M02/M04 Q1035 R07/090070 R16/090070 NOSIG RMK QFE766/1021
VFR -3°C / -5°C 360º 4kt >10km - Clouds and Visibility OK 1035 No Significant change. Runway 25: Clear and dry, 51-100% contamination with <1mm, friction coefficient 0.70. Runway 16: Clear and dry, 51-100% contamination with <1mm, friction coefficient 0.70. UNNT 151700Z 36002MPS CAVOK M03/M05 Q1035 R25/090070 R16/090070 NOSIG RMK QFE766/1021
VFR -2°C / -5°C 360º 4kt >10km - Clouds and Visibility OK 1035 No Significant change. Runway 25: Clear and dry, 51-100% contamination with <1mm, friction coefficient 0.70. Runway 16: Clear and dry, 51-100% contamination with <1mm, friction coefficient 0.70. UNNT 151630Z 36002MPS CAVOK M02/M05 Q1035 R25/090070 R16/090070 NOSIG RMK QFE766/1022
VFR -1°C / -4°C 360º 4kt >10km - Clouds and Visibility OK 1035 No Significant change. Runway 25: Clear and dry, 51-100% contamination with <1mm, friction coefficient 0.70. Runway 16: Clear and dry, 51-100% contamination with <1mm, friction coefficient 0.70. UNNT 151600Z 36002MPS CAVOK M01/M04 Q1035 R25/090070 R16/090070 NOSIG RMK QFE766/1022
VFR -2°C / -4°C 360º 4kt >10km - Clouds and Visibility OK 1036 No Significant change. Runway 25: Clear and dry, 51-100% contamination with <1mm, friction coefficient 0.70. Runway 16: Clear and dry, 51-100% contamination with <1mm, friction coefficient 0.70. UNNT 151530Z 36002MPS CAVOK M02/M04 Q1036 R25/090070 R16/090070 NOSIG RMK QFE767/1022
VFR 1°C / -4°C 360º 4kt >10km - Clouds and Visibility OK 1036 No Significant change. Runway 16: Clear and dry, 51-100% contamination with <1mm, friction coefficient 0.70. Runway 07: Clear and dry, 51-100% contamination with <1mm, friction coefficient 0.70. UNNT 151500Z 36002MPS CAVOK 01/M04 Q1036 R16/090070 R07/090070 NOSIG RMK QFE767/1023
VFR 2°C / -3°C 20º 2kt >10km - Clouds and Visibility OK 1036 No Significant change. Runway 16: Clear and dry, 51-100% contamination with <1mm, friction coefficient 0.70. Runway 07: Clear and dry, 51-100% contamination with <1mm, friction coefficient 0.70. UNNT 151430Z 02001MPS CAVOK 02/M03 Q1036 R16/090070 R07/090070 NOSIG RMK QFE767/1023
VFR 2°C / -3°C 40º 4kt >10km - Clouds and Visibility OK 1036 No Significant change. Runway 16: Clear and dry, 51-100% contamination with <1mm, friction coefficient 0.70. Runway 07: Clear and dry, 51-100% contamination with <1mm, friction coefficient 0.70. UNNT 151400Z 04002MPS CAVOK 02/M03 Q1036 R16/090070 R07/090070 NOSIG RMK QFE767/1023
VFR 2°C / -3°C 30º 4kt >10km - Clouds and Visibility OK 1036 No Significant change. Runway 16: Clear and dry, 51-100% contamination with <1mm, friction coefficient 0.70. Runway 07: Clear and dry, 51-100% contamination with <1mm, friction coefficient 0.70. UNNT 151330Z 03002MPS CAVOK 02/M03 Q1036 R16/090070 R07/090070 NOSIG RMK QFE767/1023
VFR 3°C / -3°C 40º 4kt >10km - Clouds and Visibility OK 1036 No Significant change. Runway 16: Clear and dry, 51-100% contamination with <1mm, friction coefficient 0.70. Runway 07: Clear and dry, 51-100% contamination with <1mm, friction coefficient 0.70. UNNT 151300Z 04002MPS CAVOK 03/M03 Q1036 R16/090070 R07/090070 NOSIG RMK QFE767/1023

VFR

-7°C / -7°C

[Mais]
Vento 320º 4kt
Visibilidade >10km
Tempo -
Nuvens Clouds and Visibility OK
Pressão 1032
Mudança No Significant change. Runway 07: Clear and dry, 51-100% contamination with <1mm, friction coefficient 0.70. Runway 16: Clear and dry, 51-100% contamination with <1mm, friction coefficient 0.70.
Bruto UNNT 160030Z 32002MPS CAVOK M07/M07 Q1032 R07/090070 R16/090070 NOSIG RMK QFE764/1019

VFR

-5°C / -6°C

[Mais]
Vento 300º 4kt
Visibilidade >10km
Tempo -
Nuvens Clouds and Visibility OK
Pressão 1032
Mudança No Significant change. Runway 25: Clear and dry, 51-100% contamination with <1mm, friction coefficient 0.70. Runway 16: Clear and dry, 51-100% contamination with <1mm, friction coefficient 0.70.
Bruto UNNT 160000Z 30002MPS CAVOK M05/M06 Q1032 R25/090070 R16/090070 NOSIG RMK QFE764/1019

VFR

-5°C / -6°C

[Mais]
Vento 340º 2kt
Visibilidade >10km
Tempo -
Nuvens Clouds and Visibility OK
Pressão 1033
Mudança No Significant change. Runway 25: Clear and dry, 51-100% contamination with <1mm, friction coefficient 0.70. Runway 16: Clear and dry, 51-100% contamination with <1mm, friction coefficient 0.70.
Bruto UNNT 152330Z 34001MPS CAVOK M05/M06 Q1033 R25/090070 R16/090070 NOSIG RMK QFE764/1019

VFR

-6°C / -7°C

[Mais]
Vento 310º 2kt
Visibilidade >10km
Tempo -
Nuvens Clouds and Visibility OK
Pressão 1033
Mudança No Significant change. Runway 07: Clear and dry, 51-100% contamination with <1mm, friction coefficient 0.70. Runway 16: Clear and dry, 51-100% contamination with <1mm, friction coefficient 0.70.
Bruto UNNT 152300Z 31001MPS CAVOK M06/M07 Q1033 R07/090070 R16/090070 NOSIG RMK QFE764/1019

VFR

-6°C / -6°C

[Mais]
Vento 330º 4kt
Visibilidade >10km
Tempo -
Nuvens Clouds and Visibility OK
Pressão 1033
Mudança No Significant change. Runway 07: Clear and dry, 51-100% contamination with <1mm, friction coefficient 0.70. Runway 16: Clear and dry, 51-100% contamination with <1mm, friction coefficient 0.70.
Bruto UNNT 152230Z 33002MPS CAVOK M06/M06 Q1033 R07/090070 R16/090070 NOSIG RMK QFE765/1020

VFR

-4°C / -4°C

[Mais]
Vento 320º 4kt
Visibilidade >10km
Tempo -
Nuvens Clouds and Visibility OK
Pressão 1033
Mudança No Significant change. Runway 07: Clear and dry, 51-100% contamination with <1mm, friction coefficient 0.70. Runway 16: Clear and dry, 51-100% contamination with <1mm, friction coefficient 0.70.
Bruto UNNT 152200Z 32002MPS CAVOK M04/M04 Q1033 R07/090070 R16/090070 NOSIG RMK QFE765/1020

VFR

-5°C / -6°C

[Mais]
Vento 310º 2kt
Visibilidade >10km
Tempo -
Nuvens Clouds and Visibility OK
Pressão 1033
Mudança No Significant change. Runway 07: Clear and dry, 51-100% contamination with <1mm, friction coefficient 0.70. Runway 16: Clear and dry, 51-100% contamination with <1mm, friction coefficient 0.70.
Bruto UNNT 152130Z 31001MPS CAVOK M05/M06 Q1033 R07/090070 R16/090070 NOSIG RMK QFE765/1020

VFR

-5°C / -6°C

[Mais]
Vento 340º 4kt
Visibilidade >10km
Tempo -
Nuvens Clouds and Visibility OK
Pressão 1033
Mudança No Significant change. Runway 07: Clear and dry, 51-100% contamination with <1mm, friction coefficient 0.70. Runway 16: Clear and dry, 51-100% contamination with <1mm, friction coefficient 0.70.
Bruto UNNT 152100Z 34002MPS CAVOK M05/M06 Q1033 R07/090070 R16/090070 NOSIG RMK QFE765/1020

VFR

-4°C / -5°C

[Mais]
Vento 260º 2kt
Visibilidade >10km
Tempo -
Nuvens Clouds and Visibility OK
Pressão 1034
Mudança No Significant change. Runway 07: Clear and dry, 51-100% contamination with <1mm, friction coefficient 0.70. Runway 16: Clear and dry, 51-100% contamination with <1mm, friction coefficient 0.70.
Bruto UNNT 152030Z 26001MPS CAVOK M04/M05 Q1034 R07/090070 R16/090070 NOSIG RMK QFE765/1020

VFR

-5°C / -5°C

[Mais]
Vento 330º 2kt
Visibilidade >10km
Tempo -
Nuvens Clouds and Visibility OK
Pressão 1034
Mudança No Significant change. Runway 07: Clear and dry, 51-100% contamination with <1mm, friction coefficient 0.70. Runway 16: Clear and dry, 51-100% contamination with <1mm, friction coefficient 0.70.
Bruto UNNT 152000Z 33001MPS CAVOK M05/M05 Q1034 R07/090070 R16/090070 NOSIG RMK QFE765/1020

VFR

-4°C / -5°C

[Mais]
Vento 350º 4kt
Visibilidade >10km
Tempo -
Nuvens Clouds and Visibility OK
Pressão 1034
Mudança No Significant change. Runway 07: Clear and dry, 51-100% contamination with <1mm, friction coefficient 0.70. Runway 16: Clear and dry, 51-100% contamination with <1mm, friction coefficient 0.70.
Bruto UNNT 151930Z 35002MPS CAVOK M04/M05 Q1034 R07/090070 R16/090070 NOSIG RMK QFE765/1020

VFR

-4°C / -6°C

[Mais]
Vento 350º 4kt
Visibilidade >10km
Tempo -
Nuvens Clouds and Visibility OK
Pressão 1034
Mudança No Significant change. Runway 07: Clear and dry, 51-100% contamination with <1mm, friction coefficient 0.70. Runway 16: Clear and dry, 51-100% contamination with <1mm, friction coefficient 0.70.
Bruto UNNT 151900Z 35002MPS CAVOK M04/M06 Q1034 R07/090070 R16/090070 NOSIG RMK QFE765/1020

VFR

-3°C / -5°C

[Mais]
Vento variable 2kt
Visibilidade >10km
Tempo -
Nuvens Clouds and Visibility OK
Pressão 1034
Mudança No Significant change. Runway 07: Clear and dry, 51-100% contamination with <1mm, friction coefficient 0.70. Runway 16: Clear and dry, 51-100% contamination with <1mm, friction coefficient 0.70.
Bruto UNNT 151830Z VRB01MPS CAVOK M03/M05 Q1034 R07/090070 R16/090070 NOSIG RMK QFE765/1021

VFR

-3°C / -5°C

[Mais]
Vento 310º 2kt
Visibilidade >10km
Tempo -
Nuvens Clouds and Visibility OK
Pressão 1034
Mudança No Significant change. Runway 07: Clear and dry, 51-100% contamination with <1mm, friction coefficient 0.70. Runway 16: Clear and dry, 51-100% contamination with <1mm, friction coefficient 0.70.
Bruto UNNT 151800Z 31001MPS CAVOK M03/M05 Q1034 R07/090070 R16/090070 NOSIG RMK QFE766/1021

VFR

-2°C / -4°C

[Mais]
Vento 290º 2kt
Visibilidade >10km
Tempo -
Nuvens Clouds and Visibility OK
Pressão 1035
Mudança No Significant change. Runway 07: Clear and dry, 51-100% contamination with <1mm, friction coefficient 0.70. Runway 16: Clear and dry, 51-100% contamination with <1mm, friction coefficient 0.70.
Bruto UNNT 151730Z 29001MPS CAVOK M02/M04 Q1035 R07/090070 R16/090070 NOSIG RMK QFE766/1021

VFR

-3°C / -5°C

[Mais]
Vento 360º 4kt
Visibilidade >10km
Tempo -
Nuvens Clouds and Visibility OK
Pressão 1035
Mudança No Significant change. Runway 25: Clear and dry, 51-100% contamination with <1mm, friction coefficient 0.70. Runway 16: Clear and dry, 51-100% contamination with <1mm, friction coefficient 0.70.
Bruto UNNT 151700Z 36002MPS CAVOK M03/M05 Q1035 R25/090070 R16/090070 NOSIG RMK QFE766/1021

VFR

-2°C / -5°C

[Mais]
Vento 360º 4kt
Visibilidade >10km
Tempo -
Nuvens Clouds and Visibility OK
Pressão 1035
Mudança No Significant change. Runway 25: Clear and dry, 51-100% contamination with <1mm, friction coefficient 0.70. Runway 16: Clear and dry, 51-100% contamination with <1mm, friction coefficient 0.70.
Bruto UNNT 151630Z 36002MPS CAVOK M02/M05 Q1035 R25/090070 R16/090070 NOSIG RMK QFE766/1022

VFR

-1°C / -4°C

[Mais]
Vento 360º 4kt
Visibilidade >10km
Tempo -
Nuvens Clouds and Visibility OK
Pressão 1035
Mudança No Significant change. Runway 25: Clear and dry, 51-100% contamination with <1mm, friction coefficient 0.70. Runway 16: Clear and dry, 51-100% contamination with <1mm, friction coefficient 0.70.
Bruto UNNT 151600Z 36002MPS CAVOK M01/M04 Q1035 R25/090070 R16/090070 NOSIG RMK QFE766/1022

VFR

-2°C / -4°C

[Mais]
Vento 360º 4kt
Visibilidade >10km
Tempo -
Nuvens Clouds and Visibility OK
Pressão 1036
Mudança No Significant change. Runway 25: Clear and dry, 51-100% contamination with <1mm, friction coefficient 0.70. Runway 16: Clear and dry, 51-100% contamination with <1mm, friction coefficient 0.70.
Bruto UNNT 151530Z 36002MPS CAVOK M02/M04 Q1036 R25/090070 R16/090070 NOSIG RMK QFE767/1022

VFR

1°C / -4°C

[Mais]
Vento 360º 4kt
Visibilidade >10km
Tempo -
Nuvens Clouds and Visibility OK
Pressão 1036
Mudança No Significant change. Runway 16: Clear and dry, 51-100% contamination with <1mm, friction coefficient 0.70. Runway 07: Clear and dry, 51-100% contamination with <1mm, friction coefficient 0.70.
Bruto UNNT 151500Z 36002MPS CAVOK 01/M04 Q1036 R16/090070 R07/090070 NOSIG RMK QFE767/1023

VFR

2°C / -3°C

[Mais]
Vento 20º 2kt
Visibilidade >10km
Tempo -
Nuvens Clouds and Visibility OK
Pressão 1036
Mudança No Significant change. Runway 16: Clear and dry, 51-100% contamination with <1mm, friction coefficient 0.70. Runway 07: Clear and dry, 51-100% contamination with <1mm, friction coefficient 0.70.
Bruto UNNT 151430Z 02001MPS CAVOK 02/M03 Q1036 R16/090070 R07/090070 NOSIG RMK QFE767/1023

VFR

2°C / -3°C

[Mais]
Vento 40º 4kt
Visibilidade >10km
Tempo -
Nuvens Clouds and Visibility OK
Pressão 1036
Mudança No Significant change. Runway 16: Clear and dry, 51-100% contamination with <1mm, friction coefficient 0.70. Runway 07: Clear and dry, 51-100% contamination with <1mm, friction coefficient 0.70.
Bruto UNNT 151400Z 04002MPS CAVOK 02/M03 Q1036 R16/090070 R07/090070 NOSIG RMK QFE767/1023

VFR

2°C / -3°C

[Mais]
Vento 30º 4kt
Visibilidade >10km
Tempo -
Nuvens Clouds and Visibility OK
Pressão 1036
Mudança No Significant change. Runway 16: Clear and dry, 51-100% contamination with <1mm, friction coefficient 0.70. Runway 07: Clear and dry, 51-100% contamination with <1mm, friction coefficient 0.70.
Bruto UNNT 151330Z 03002MPS CAVOK 02/M03 Q1036 R16/090070 R07/090070 NOSIG RMK QFE767/1023

VFR

3°C / -3°C

[Mais]
Vento 40º 4kt
Visibilidade >10km
Tempo -
Nuvens Clouds and Visibility OK
Pressão 1036
Mudança No Significant change. Runway 16: Clear and dry, 51-100% contamination with <1mm, friction coefficient 0.70. Runway 07: Clear and dry, 51-100% contamination with <1mm, friction coefficient 0.70.
Bruto UNNT 151300Z 04002MPS CAVOK 03/M03 Q1036 R16/090070 R07/090070 NOSIG RMK QFE767/1023

TAF para 55.03°N 82.6°L (UNNT)

From till


From till Wind 20º 6kt. Gust 16kt. Visibility 8000m. Nil Significant Cloud.
Temporarly from till Visibility 595.456m. freezing Fog . Scattered Clouds 100ft.

Bruto: TAF AMD UNNT 160009Z 1600/1624 02003G08MPS 8000 NSC TEMPO 1600/1604 0600 FZFG SCT001

Imagens atuais de satélite e precipitação para 55.03°N 82.6°L

O marcador de lugar é colocado em 55.03°N 82.6°L. [Mais]

A imagem de satélite em tempo real combina luz visível durante o dia com radiação infravermelha durante a noite. À noite, a imagem não é escura, pois a radiação infravermelha pode detectar diferenças de temperatura. Infelizmente, nuvens baixas e neblina são difíceis de distinguir das temperaturas do solo e, portanto, podem ser quase invisíveis durante a noite. As imagens de satélite Meteosat para a Europa são atualizadas em tempo real a cada 5 minutos. GOES-16/GOES-17 ( América do Norte e do Sul) e Himawari (Ásia) são atualizadas a cada 10 minutos.

Copyright 2021 EUMETSAT / meteoblue. / Copyright 2021 meteoblue

Radar e precipitação nowcast para 55.03°N 82.6°L

Chuvisco
Leve
Moderado
Forte
Muito forte
Granizo

O marcador do lugar é colocado em 55.03°N 82.6°L. Esta animação mostra o radar de precipitação para a última hora, assim como a 1h previsão. A queda de neve pode ser invisível para o radar. A intensidade da precipitação é codificada por cores, variando do azul claro ao laranja.